Tiempo atmosférico en la estación meteorológica de Loja, Granada (580 m.)



Fecha
DESCASC
Temp. máxima en grados centígrados (hora)
DESCASC
Temp. mínima en grados centígrados (hora)
DESCASC
Temp. media en grados centígrados
DESCASC
Racha de viento máxima en m/sg (hora)
DESCASC
Velocidad máxima media en intervalos de 10 minutos(hora)
DESCASC
Precipitaciones diarias en mm
DESCASC
Precipitaciones de 00:00 a 06:00 en mm
DESCASC
Precipitaciones de 06:00 a 12:00 en mm
DESCASC
Precipitaciones de 12:00 a 18:00 en mm
DESCASC
Precipitaciones de 18:00 a 24:00 en mm
DESCASC
16-04-2019 26 (17:10) 10.2 (07:50) 18.1 6.67 (09:40) 3.61 (09:50) 0 0 0 0 0
15-04-2019 27.1 (16:00) 11.9 (08:10) 19.5 10.83 (16:50) 4.72 (18:20) 0 0 0 0 0
14-04-2019 24.8 (17:40) 9.3 (00:00) 17 7.5 (16:50) 3.61 (09:00) 0 0 0 0 0
13-04-2019 22.1 (16:00) 5.9 (00:00) 14 7.22 (18:00) 3.61 (18:00) 0 0 0 0 0
12-04-2019 21.1 (15:20) 5.7 (00:00) 13.4 6.94 (17:40) 3.33 (19:10) 0 0 0 0 0
11-04-2019 17.9 (14:50) 6.4 (00:00) 12.1 7.78 (18:20) 4.17 (18:20) 0 0 0 0 0
10-04-2019 14.9 (18:40) 8.6 (00:00) 11.8 10.28 (01:10) 4.72 (01:10) 0.1 0.1 0 0 0
09-04-2019 15.4 (18:20) 8.5 (00:00) 11.9 12.78 (14:20) 5.28 (14:20) 3.6 0 0.2 0.2 3.2
08-04-2019 15.7 (14:00) 10.7 (00:00) 13.2 10.83 (22:30) 4.72 (21:30) 2.9 0.7 0 1.2 1
07-04-2019 12.7 (17:00) 6.6 (00:00) 9.6 12.5 (00:20) 4.72 (13:50) 11.3 0.5 0.7 1.3 8.8
06-04-2019 11.8 (12:00) 5.3 (00:00) 8.6 13.61 (00:10) 6.11 (00:10) 8.7 0 0.2 2.1 6.4
05-04-2019 12.1 (15:40) 5.8 (00:00) 9 15 (23:10) 6.67 (22:20) 9.7 0 3.5 6.2 0
04-04-2019 17.9 (16:30) 7.5 (00:00) 12.7 8.89 (13:40) 4.72 (14:20) 0 0 0 0 0
03-04-2019 20.9 (15:20) 7.8 (00:00) 14.3 10 (18:00) 5 (19:00) 0 0 0 0 0
02-04-2019 19.7 (17:00) 7.4 (00:00) 13.6 6.94 (17:30) 3.33 (19:00) 0 0 0 0 0
01-04-2019 16.2 (17:10) 9.3 (00:00) 12.8 6.94 (14:50) 3.06 (14:30) 1.5 0.1 0 1 0.4
31-03-2019 16.4 (17:10) 8.8 (00:00) 12.6 6.94 (22:50) 3.33 (23:00) 19.7 5.5 4 2.6 7.6
30-03-2019 21.5 (16:10) 7.7 (00:00) 14.6 8.06 (10:30) 4.17 (10:30) 0 0 0 0 0
29-03-2019 20.4 (14:50) 6.4 (00:00) 13.4 9.72 (07:40) 4.44 (04:50) 0 0 0 0 0
28-03-2019 20.1 (16:10) 5.4 (00:00) 12.8 11.11 (12:30) 5 (12:10) 0 0 0 0 0
27-03-2019 19.9 (16:10) 9.6 (00:00) 14.8 8.89 (00:10) 4.17 (00:20) 0 0 0 0 0
26-03-2019 23.7 (14:50) 9.7 (00:00) 16.7 10 (21:50) 5 (21:50) 0.1 0 0 0 0.1
25-03-2019 23 (16:40) 9.2 (00:00) 16.1 7.22 (23:59) 3.89 (23:59) 0 0 0 0 0
24-03-2019 17.3 (15:10) 8.2 (00:00) 12.7 12.78 (15:10) 5.28 (08:30) 0.2 0 0.1 0.1 0
23-03-2019 19.7 (14:10) 4.7 (00:00) 12.2 9.44 (13:40) 3.89 (22:10) 2.6 0 0 2.5 0.1
22-03-2019 19.6 (15:40) 4.5 (00:00) 12.1 6.11 (10:20) 2.78 (05:30) 0 0 0 0 0
21-03-2019 -- (--) -- (--) -- -- (--) -- (--) -- -- 0 0 0
20-03-2019 -- (--) -- (--) -- -- (--) -- (--) -- -- -- -- --
19-03-2019 -- (--) -- (--) -- -- (--) -- (--) -- -- -- -- --

Gráficas

Temp. máximas Temp. mínimas Temp. medias Precipitaciones Rachas de viento máximas Velocidades máximas media en intervalos de 10 minutos

Datos horarios

Fecha y hora oficial Temperatura (ºC) Velocidad del viento (km/h) Dirección del viento Racha (km/h) Dirección de racha Precipitación (mm) Presión (hPa) Tendencia (hPa) Humedad (%)
2019-04-17 23:00:00 14 9 Noroeste 31 Oeste 0 945.5 2.8 61
2019-04-17 22:00:00 15.1 10 Noroeste 27 Noroeste 0 944.9 2.7 59
2019-04-17 21:00:00 15.4 9 Noroeste 25 Oeste 0 943.5 2.6 57
2019-04-17 20:00:00 16.3 6 Oeste 31 Noroeste 0 942.7 3.3 56
2019-04-17 19:00:00 17.5 9 Oeste 24 Noroeste 0 942.2 2.3 53
2019-04-17 18:00:00 19.7 9 Oeste 49 Sudoeste 0 940.9 0.7 33
2019-04-17 17:00:00 24.5 5 Oeste 44 Sudoeste 0 939.4 -1.3 21
2019-04-17 16:00:00 25.6 4 Norte 43 Sudeste 0 939.9 -1.5 20
2019-04-17 15:00:00 25.4 5 Sur 43 Sudeste 0 940.2 -2 21
2019-04-17 14:00:00 24.7 16 Este 53 Sudeste 0 940.7 -1.9 22
2019-04-17 13:00:00 24.3 9 Este 51 Sudeste 0 941.4 -2.3 22
2019-04-17 12:00:00 21.4 13 Este 31 Sudeste 0 942.2 -1.7 27
2019-04-17 11:00:00 21.2 13 Sudeste 32 Sudeste 0 942.6 -1.2 30
2019-04-17 10:00:00 15.9 7 Sudeste 29 Sudeste 0 943.7 -0.5 41
2019-04-17 09:00:00 13.5 10 Este 27 Sudeste 0 943.9 -0.7 48
2019-04-17 08:00:00 12.6 14 Este 30 Este 0 943.8 -1.3 53
2019-04-17 07:00:00 12.1 13 Este 33 Sudeste 0 944.2 -0.8 56
2019-04-17 06:00:00 12.9 14 Sudeste 35 Sudeste 0 944.6 -1.3 57
2019-04-17 05:00:00 13.5 12 Sudeste 27 Sudeste 0 945.1 -1.1 50
2019-04-17 04:00:00 15.4 11 Sudeste 26 Sudeste 0 945 -0.8 43
2019-04-17 03:00:00 15.1 6 Este 18 Sudeste 0 945.9 0 43
2019-04-17 02:00:00 15.9 4 Sudeste 10 Sudeste 0 946.2 0.2 38
2019-04-17 01:00:00 15.8 5 Sur 17 Sudeste 0 945.8 0.2 38
2019-04-17 00:00:00 16.3 2 Oeste 12 Sudeste 0 945.9 0.3 36
2019-04-16 23:00:00 16.2 0 Calma 9 Este 0 946 0.8 29
2019-04-16 22:00:00 18 3 Sur 10 Sudoeste 0 945.6 0.2 24
2019-04-16 21:00:00 19.4 2 Sur 7 Sudoeste 0 945.6 0 20
2019-04-16 20:00:00 21.8 3 Sudeste 10 Oeste 0 945.2 -0.4 15
2019-04-16 19:00:00 22.8 5 Noroeste 16 Oeste 0 945.4 -0.8 14
2019-04-16 18:00:00 24.7 9 Sudoeste 20 Sudoeste 0 945.6 -1.2 --
2019-04-16 17:00:00 25.7 0 Calma 22 Norte 0 945.6 -1.9 16
2019-04-16 16:00:00 24.1 10 Noroeste 23 Oeste 0 946.2 -2.3 18
2019-04-16 15:00:00 23.2 5 Nordeste 13 Nordeste 0 946.8 -2.1 24
2019-04-16 14:00:00 21.6 3 Norte 13 Nordeste 0 947.5 -1.5 29
2019-04-16 13:00:00 19.6 5 Nordeste 19 Nordeste 0 948.5 -0.6 34
2019-04-16 12:00:00 17.4 11 Nordeste 21 Este 0 948.9 -0.1 38
2019-04-16 11:00:00 16.4 8 Este 21 Sudeste 0 949 -0.1 52
2019-04-16 10:00:00 13.5 12 Este 24 Sudeste 0 949.1 0.3 69
2019-04-16 09:00:00 11.9 3 Este 6 Sudeste 0 949 0.2 72
2019-04-16 08:00:00 10.7 0 Calma 5 Sudeste 0 949.1 -0.1 84
2019-04-16 07:00:00 11.5 2 Oeste 9 Noroeste 0 948.8 -0.7 82
2019-04-16 06:00:00 12.1 0 Calma 12 Oeste 0 948.8 -0.8 79
2019-04-16 05:00:00 12.7 4 Oeste 11 Oeste 0 949.2 -0.4 78
2019-04-16 04:00:00 13 5 Oeste 10 Noroeste 0 949.5 -0.1 75
2019-04-16 03:00:00 13.8 0 Calma 21 Oeste 0 949.6 0.2 70
2019-04-16 02:00:00 13.6 10 Noroeste 22 Oeste 0 949.6 0.5 67
2019-04-16 01:00:00 15.1 8 Oeste 21 Oeste 0 949.6 1.6 61
2019-04-16 00:00:00 15.2 10 Oeste 30 Oeste 0 949.4 2.5 57
2019-04-15 23:00:00 16 9 Oeste 26 Oeste 0 949.1 2.9 49
2019-04-15 22:00:00 17.9 10 Oeste 24 Oeste 0 948 2.3 34
2019-04-15 21:00:00 19.4 7 Oeste 33 Oeste 0 946.9 2.2 27
2019-04-15 20:00:00 21.5 12 Oeste 36 Noroeste 0 946.2 1.8 21
2019-04-15 19:00:00 23.8 10 Noroeste 35 Noroeste 0 945.7 1.1 21
2019-04-15 18:00:00 24.9 13 Noroeste 31 Oeste 0 944.7 -0.1 23
2019-04-15 17:00:00 24.5 12 Noroeste 39 Noroeste 0 944.4 -0.9 21
2019-04-15 16:00:00 25.9 14 Oeste 36 Oeste 0 944.6 -1.4 17
2019-04-15 15:00:00 26.6 9 Noroeste 25 Oeste 0 944.8 -1.7 19
2019-04-15 14:00:00 24.6 8 Nordeste 16 Nordeste 0 945.3 -0.9 29
2019-04-15 13:00:00 20.8 8 Nordeste 15 Nordeste 0 946 -0.1 40
2019-04-15 12:00:00 17.2 4 Nordeste 8 Nordeste 0 946.5 0.7 52
2019-04-15 11:00:00 15.6 2 Nordeste 7 Este 0 946.2 0.7 57
2019-04-15 10:00:00 14.4 3 Nordeste 17 Este 0 946.1 0.7 59
2019-04-15 09:00:00 14.5 6 Este 18 Este 0 945.8 0.2 61
2019-04-15 08:00:00 12 11 Este 23 Este 0 945.5 -0.4 72
2019-04-15 07:00:00 13.6 12 Este 22 Este 0 945.4 -1 66
2019-04-15 06:00:00 13.6 12 Este 23 Este 0 945.6 -1.2 65
2019-04-15 05:00:00 14.5 12 Este 21 Sudeste 0 945.9 -0.9 61
2019-04-15 04:00:00 15.7 10 Este 22 Este 0 946.4 -1.5 54
2019-04-15 03:00:00 16.2 12 Este 20 Sudeste 0 946.8 -1 50
2019-04-15 02:00:00 17.3 6 Este 15 Sudeste 0 946.8 -1.3 50
2019-04-15 01:00:00 17 3 Sudeste 8 Noroeste 0 947.9 0 48
2019-04-15 00:00:00 18.2 0 Calma 8 Noroeste 0 947.8 0.4 43
2019-04-14 23:00:00 19.4 5 Sudoeste 9 Sudoeste 0 948.1 1 38
2019-04-14 22:00:00 19.8 4 Sudoeste 12 Oeste 0 947.9 0.9 36
2019-04-14 21:00:00 20.9 5 Sudoeste 15 Oeste 0 947.4 0.6 32
2019-04-14 20:00:00 22.2 6 Noroeste 20 Noroeste 0 947.1 -0.3 30
2019-04-14 19:00:00 23.1 10 Noroeste 27 Norte 0 947 -1 28
2019-04-14 18:00:00 23.5 9 Noroeste 23 Norte 0 946.8 -1.7 27
2019-04-14 17:00:00 23.9 10 Norte 27 Noroeste 0 947.4 -1.7 27
2019-04-14 16:00:00 23.6 8 Norte 24 Norte 0 948 -1.7 27
2019-04-14 15:00:00 23.2 6 Noroeste 17 Noroeste 0 948.5 -1.8 27
2019-04-14 14:00:00 22 8 Noroeste 17 Noroeste 0 949.1 -1.5 28
2019-04-14 13:00:00 19.5 5 Nordeste 10 Nordeste 0 949.7 -0.6 35
2019-04-14 12:00:00 16.8 5 Nordeste 17 Este 0 950.3 0 41
2019-04-14 11:00:00 15 8 Este 22 Este 0 950.6 0.1 43
2019-04-14 10:00:00 12.1 11 Este 24 Sudeste 0 950.3 0.1 52
2019-04-14 09:00:00 10.9 13 Este 26 Este 0 950.3 0 54
2019-04-14 08:00:00 10.1 9 Este 19 Este 0 950.5 -0.1 56
2019-04-14 07:00:00 9.7 6 Este 17 Este 0 950.2 -0.3 59
2019-04-14 06:00:00 9.9 4 Sudeste 11 Sudeste 0 950.3 -0.5 59
2019-04-14 05:00:00 9.8 0 Calma 4 Sur 0 950.6 -0.6 61
2019-04-14 04:00:00 12.5 0 Calma 14 Noroeste 0 950.5 -1.1 44
2019-04-14 03:00:00 13.7 8 Oeste 17 Oeste 0 950.8 -0.7 40
2019-04-14 02:00:00 14.6 9 Oeste 17 Oeste 0 951.2 -0.1 37
2019-04-14 01:00:00 15.8 6 Oeste 16 Oeste 0 951.6 1 35
2019-04-14 00:00:00 13.8 0 Calma 17 Oeste 0 951.5 1.5 35
2019-04-13 23:00:00 17.5 8 Oeste 18 Oeste 0 951.3 1.6 25
2019-04-13 22:00:00 17.6 6 Oeste 15 Oeste 0 950.6 1.5 24
2019-04-13 21:00:00 18.2 7 Oeste 17 Oeste 0 950 1.1 22
2019-04-13 20:00:00 19.3 12 Noroeste 23 Noroeste 0 949.7 0.6 21
2019-04-13 19:00:00 20.1 10 Noroeste 25 Oeste 0 949.1 -0.5 21
2019-04-13 18:00:00 21 13 Noroeste 26 Noroeste 0 948.9 -0.9 20
2019-04-13 17:00:00 20.7 9 Noroeste 21 Noroeste 0 949.1 -1.1 21
2019-04-13 16:00:00 20.4 6 Noroeste 21 Noroeste 0 949.6 -1.2 22
2019-04-13 15:00:00 19.9 9 Noroeste 24 Norte 0 949.8 -1.4 24
2019-04-13 14:00:00 19.6 6 Oeste 19 Oeste 0 950.2 -1.2 25
2019-04-13 13:00:00 18 5 Noroeste 14 Noroeste 0 950.8 -0.4 29
2019-04-13 12:00:00 14.6 4 Nordeste 9 Este 0 951.2 0.3 42
2019-04-13 11:00:00 12.2 6 Este 15 Nordeste 0 951.4 0.8 46
2019-04-13 10:00:00 10.3 5 Este 14 Este 0 951.2 1.1 53
2019-04-13 09:00:00 8.6 5 Nordeste 14 Este 0 950.9 1.2 60
2019-04-13 08:00:00 6.2 0 Calma 6 Sudeste 0 950.6 1 75
2019-04-13 07:00:00 7.7 0 Calma 9 Este 0 950.1 0.6 66
2019-04-13 06:00:00 6.7 0 Calma 6 Este 0 949.7 -0.3 74
2019-04-13 05:00:00 8.2 2 Sur 7 Sudeste 0 949.6 -0.6 63
2019-04-13 04:00:00 8.4 2 Sudeste 7 Sudoeste 0 949.5 -0.7 62
2019-04-13 03:00:00 9.6 0 Calma 10 Sur 0 950 0.3 53
2019-04-13 02:00:00 10.3 0 Calma 6 Noroeste 0 950.2 1.1 45
2019-04-13 01:00:00 11.2 2 Sur 8 Sur 0 950.2 1.8 42
2019-04-13 00:00:00 12.7 3 Oeste 10 Sudoeste 0 949.7 1.7 32
2019-04-12 23:00:00 14.4 6 Sudoeste 8 Sudoeste 0 949.1 1.7 28
2019-04-12 22:00:00 14.7 5 Sudoeste 10 Oeste 0 948.4 1.1 27
2019-04-12 21:00:00 15.9 5 Oeste 17 Oeste 0 948 0.8 24
2019-04-12 20:00:00 17.5 11 Noroeste 21 Oeste 0 947.4 0 22
2019-04-12 19:00:00 18.3 10 Noroeste 22 Noroeste 0 947.3 -0.7 22
2019-04-12 18:00:00 18.8 9 Noroeste 25 Noroeste 0 947.2 -1.4 22
2019-04-12 17:00:00 19.2 9 Norte 23 Norte 0 947.4 -1.5 22
2019-04-12 16:00:00 19.8 5 Noroeste 21 Noroeste 0 948 -1.4 22
2019-04-12 15:00:00 18.8 5 Noroeste 22 Norte 0 948.6 -1 21
2019-04-12 14:00:00 18.8 2 Sudoeste 14 Noroeste 0 948.9 -0.7 23
2019-04-12 13:00:00 16.3 5 Nordeste 13 Norte 0 949.4 -0.4 23
2019-04-12 12:00:00 13.7 6 Nordeste 14 Este 0 949.6 0 41
2019-04-12 11:00:00 11.5 7 Nordeste 14 Nordeste 0 949.6 0.3 50
2019-04-12 10:00:00 9.6 8 Este 19 Este 0 949.8 1 52
2019-04-12 09:00:00 8.4 0 Calma 9 Este 0 949.6 1.1 64
2019-04-12 08:00:00 7.1 3 Sudeste 10 Sudeste 0 949.3 0.9 69
2019-04-12 07:00:00 6.2 0 Calma 8 Nordeste 0 948.8 0.1 80
2019-04-12 06:00:00 6.6 0 Calma 8 Sur 0 948.5 -0.5 78
2019-04-12 05:00:00 7.5 0 Calma 6 Sudeste 0 948.4 -0.7 69
2019-04-12 04:00:00 8 0 Calma 5 Sudeste 0 948.7 -0.5 65
2019-04-12 03:00:00 10.2 3 Sudeste 8 Nordeste 0 949 0 52
2019-04-12 02:00:00 10.5 3 Nordeste 12 Sur 0 949.1 0 48
2019-04-12 01:00:00 12.4 5 Sudeste 19 Este 0 949.2 0.6 43
2019-04-12 00:00:00 11.8 3 Sudeste 7 Sudoeste 0 949 1.2 41
2019-04-11 23:00:00 12.9 4 Sudoeste 7 Sudoeste 0 949.1 1.6 37
2019-04-11 22:00:00 14.4 4 Oeste 9 Noroeste 0 948.6 1.1 32
2019-04-11 21:00:00 14.6 5 Noroeste 21 Noroeste 0 947.8 0.3 30
2019-04-11 20:00:00 15.6 10 Noroeste 23 Noroeste 0 947.5 0.3 27
2019-04-11 19:00:00 16.4 13 Noroeste 28 Noroeste 0 947.5 -0.2 24
2019-04-11 18:00:00 16.8 10 Noroeste 27 Noroeste 0 947.5 -0.4 22
2019-04-11 17:00:00 17.2 13 Noroeste 24 Noroeste 0 947.2 -0.9 26
2019-04-11 16:00:00 16.2 9 Noroeste 22 Noroeste 0 947.7 -0.6 29
2019-04-11 15:00:00 16.7 11 Noroeste 25 Norte 0 947.9 -0.7 29
2019-04-11 14:00:00 16.2 11 Noroeste 27 Noroeste 0 948.1 -0.6 28
2019-04-11 13:00:00 15.6 6 Noroeste 17 Noroeste 0 948.3 -0.7 34
2019-04-11 12:00:00 14.3 7 Noroeste 15 Noroeste 0 948.6 -0.2 41
2019-04-11 11:00:00 12.1 5 Noroeste 10 Norte 0 948.7 0.1 50
2019-04-11 10:00:00 10.7 0 Calma 12 Noroeste 0 949 1 56
2019-04-11 09:00:00 8.5 5 Noroeste 11 Oeste 0 948.8 0.6 68
2019-04-11 08:00:00 7 5 Oeste 15 Noroeste 0 948.6 0.4 78
2019-04-11 07:00:00 6.9 0 Calma 12 Noroeste 0 948 0.3 76
2019-04-11 06:00:00 7.6 2 Oeste 8 Noroeste 0 948.2 0.3 69
2019-04-11 05:00:00 8.4 0 Calma 17 Oeste 0 948.2 0.1 65
2019-04-11 04:00:00 8.8 8 Noroeste 19 Oeste 0 947.7 -0.4 56
2019-04-11 03:00:00 11.3 6 Oeste 25 Sudoeste 0 947.9 -0.1 43
2019-04-11 02:00:00 12.3 8 Oeste 26 Oeste 0 948.1 0.3 40
2019-04-11 01:00:00 12.7 7 Oeste 19 Oeste 0 948.1 0.9 38
2019-04-11 00:00:00 13.1 8 Oeste 23 Oeste 0 948 1.8 37
2019-04-10 23:00:00 13.6 10 Oeste 26 Oeste 0 947.8 1.9 36
2019-04-10 22:00:00 13.8 12 Oeste 31 Oeste 0 947.2 1.2 36
2019-04-10 21:00:00 13.6 9 Oeste 25 Oeste 0 946.2 0 38
2019-04-10 20:00:00 14 14 Noroeste 28 Noroeste 0 945.9 -0.5 38
2019-04-10 19:00:00 14.1 11 Noroeste 24 Noroeste 0 946 -0.7 38
2019-04-10 18:00:00 13.6 11 Noroeste 30 Noroeste 0 946.2 -0.7 40
2019-04-10 17:00:00 12.9 13 Noroeste 30 Noroeste 0 946.4 -0.7 38
2019-04-10 16:00:00 13.4 13 Noroeste 28 Noroeste 0 946.7 -1 36
2019-04-10 15:00:00 12.2 15 Noroeste 31 Oeste 0 946.9 -1 38
2019-04-10 14:00:00 12.8 13 Noroeste 26 Noroeste 0 947.1 -1.1 42
2019-04-10 13:00:00 11.8 7 Oeste 26 Noroeste 0 947.7 -0.2 45
2019-04-10 12:00:00 11.4 9 Oeste 20 Noroeste 0 947.9 0.2 53
2019-04-10 11:00:00 10 10 Noroeste 20 Noroeste 0 948.2 1.2 59
2019-04-10 10:00:00 9.3 8 Noroeste 17 Oeste 0 947.9 0.8 62
2019-04-10 09:00:00 9.1 8 Oeste 22 Oeste 0 947.7 0.7 68
2019-04-10 08:00:00 8.8 4 Oeste 20 Oeste 0 947 -0.4 69
2019-04-10 07:00:00 9.2 9 Oeste 21 Sudoeste 0 947.1 -0.2 65
2019-04-10 06:00:00 9.2 8 Oeste 21 Oeste 0 947 -0.8 66
2019-04-10 05:00:00 9.6 10 Oeste 24 Noroeste 0 947.4 -0.5 71
2019-04-10 04:00:00 10.4 9 Oeste 31 Oeste 0 947.3 -0.6 65
2019-04-10 03:00:00 10.5 13 Oeste 37 Oeste 0 947.8 0.6 68
2019-04-10 02:00:00 11.2 14 Oeste 37 Oeste 0 947.9 0.2 64
2019-04-10 01:00:00 11.3 15 Oeste 36 Oeste 0.1 947.9 0.6 67
2019-04-10 00:00:00 12.3 13 Oeste 36 Oeste 0.5 947.2 0 73
2019-04-09 23:00:00 8.6 6 Oeste 24 Noroeste 2 947.7 0.9 84
2019-04-09 22:00:00 9.5 5 Noroeste 32 Noroeste 0.7 947.3 0.8 78
2019-04-09 21:00:00 12.7 7 Oeste 28 Noroeste 0 947.2 0.6 50
2019-04-09 20:00:00 13.3 13 Oeste 32 Oeste 0 946.8 0 46
2019-04-09 19:00:00 14.2 12 Oeste 38 Oeste 0 946.5 -0.3 40
2019-04-09 18:00:00 14.4 12 Noroeste 41 Noroeste 0 946.6 -0.9 46
2019-04-09 17:00:00 13.7 14 Oeste 37 Oeste 0 946.8 -1.1 38
2019-04-09 16:00:00 14.1 17 Noroeste 40 Noroeste 0.2 946.8 -1.6 38
2019-04-09 15:00:00 14.6 15 Noroeste 46 Oeste 0 947.5 -1.3 37
2019-04-09 14:00:00 13.2 13 Oeste 34 Oeste 0 947.9 -0.9 41
2019-04-09 13:00:00 12.8 15 Noroeste 32 Noroeste 0 948.4 -0.4 50
2019-04-09 12:00:00 11.3 11 Oeste 34 Oeste 0 948.8 0 63
2019-04-09 11:00:00 10.6 11 Oeste 28 Oeste 0.2 948.8 0.4 63
2019-04-09 10:00:00 9.8 11 Noroeste 22 Oeste 0 948.8 1 65
2019-04-09 09:00:00 9.2 8 Oeste 22 Oeste 0 948.8 1.2 66
2019-04-09 08:00:00 9.2 9 Oeste 32 Oeste 0 948.4 0.7 66
2019-04-09 07:00:00 9.5 13 Oeste 34 Oeste 0 947.8 -0.2 63
2019-04-09 06:00:00 9.7 11 Oeste 28 Oeste 0 947.6 -0.3 67
2019-04-09 05:00:00 10.2 10 Oeste 29 Oeste 0 947.7 -0.2 67
2019-04-09 04:00:00 10.6 11 Oeste 36 Oeste 0 948 0.3 67
2019-04-09 03:00:00 10.7 10 Oeste 27 Oeste 0 947.9 0 66
2019-04-09 02:00:00 11.2 11 Oeste 35 Oeste 0 947.9 0.4 59
2019-04-09 01:00:00 12.1 14 Oeste 39 Oeste 0 947.7 0.8 56
2019-04-09 00:00:00 12 11 Oeste 37 Oeste 0 947.9 1.4 56
2019-04-08 23:00:00 12.3 9 Oeste 39 Oeste 0 947.5 1.4 62
2019-04-08 22:00:00 12.8 16 Oeste 37 Oeste 0 946.9 1.2 59
2019-04-08 21:00:00 13.2 12 Oeste 31 Oeste 0 946.5 0.4 69
2019-04-08 20:00:00 13.9 10 Oeste 37 Oeste 0.2 946.1 0.1 69
2019-04-08 19:00:00 13 9 Oeste 27 Oeste 0.8 945.7 -0.9 81
2019-04-08 18:00:00 14.4 7 Oeste 27 Oeste 0.2 946.1 -1 66
2019-04-08 17:00:00 12.6 7 Oeste 24 Oeste 0.6 946 -1.3 79
2019-04-08 16:00:00 13.9 5 Noroeste 21 Noroeste 0.3 946.6 -1.2 74
2019-04-08 15:00:00 13 5 Oeste 30 Oeste 0.1 947.1 -0.7 75
2019-04-08 14:00:00 14.4 11 Oeste 25 Noroeste 0 947.3 -0.3 52
2019-04-08 13:00:00 14 8 Oeste 28 Oeste 0 947.8 0.2 58
2019-04-08 12:00:00 13.6 6 Oeste 27 Oeste 0 947.8 0.1 56
2019-04-08 11:00:00 13.1 11 Oeste 27 Oeste 0 947.6 0.4 56
2019-04-08 10:00:00 11.8 7 Oeste 17 Noroeste 0 947.6 0.7 73
2019-04-08 09:00:00 11.2 6 Oeste 13 Oeste 0 947.7 1 77
2019-04-08 08:00:00 11.1 4 Noroeste 24 Oeste 0 947.2 0.5 74
2019-04-08 07:00:00 11 6 Noroeste 22 Noroeste 0 946.9 -0.3 79
2019-04-08 06:00:00 12.1 7 Oeste 26 Oeste 0 946.7 -0.8 70
2019-04-08 05:00:00 12.1 6 Oeste 20 Noroeste 0.3 946.7 -0.8 78
2019-04-08 04:00:00 11.9 5 Oeste 24 Sudoeste 0 947.2 -0.2 75
2019-04-08 03:00:00 12.1 10 Oeste 30 Oeste 0 947.5 0.4 68
2019-04-08 02:00:00 11.4 5 Oeste 26 Oeste 0 947.5 3.4 80
2019-04-08 01:00:00 11.2 11 Oeste 38 Noroeste 0.4 947.4 6 81
2019-04-08 00:00:00 11.8 12 Oeste 37 Sudoeste 0.5 947.1 5.4 83
2019-04-07 23:00:00 10.4 7 Oeste 23 Oeste 1.9 944.1 -1.8 84
2019-04-07 22:00:00 9.7 5 Este 13 Este 3 941.4 -4.4 84
2019-04-07 21:00:00 9.7 5 Este 13 Este 2.3 941.7 -4.2 84
2019-04-07 20:00:00 10.4 0 Calma 9 Noroeste 0.6 945.9 -0.3 84
2019-04-07 19:00:00 9.8 3 Noroeste 15 Noroeste 0.5 945.8 -0.5 84
2019-04-07 18:00:00 10 7 Oeste 18 Noroeste 1.1 945.9 -0.6 84
2019-04-07 17:00:00 10.2 11 Noroeste 27 Oeste 0.2 946.2 -0.2 79
2019-04-07 16:00:00 12.1 10 Oeste 24 Noroeste 0 946.3 -0.1 54
2019-04-07 15:00:00 11.7 8 Noroeste 28 Noroeste 0 946.5 0.5 54
2019-04-07 14:00:00 11.4 17 Noroeste 37 Oeste 0 946.4 1.2 51
2019-04-07 13:00:00 11.1 12 Oeste 29 Oeste 0 946.4 2 53
2019-04-07 12:00:00 10.8 13 Oeste 38 Noroeste 0 946 1.6 57
2019-04-07 11:00:00 10.5 14 Oeste 35 Oeste 0.1 945.2 1.7 63
2019-04-07 10:00:00 7.3 13 Oeste 33 Noroeste 0.3 944.4 0.9 78
2019-04-07 09:00:00 8.8 13 Oeste 36 Oeste 0.2 944.4 1.2 69
2019-04-07 08:00:00 10.1 15 Oeste 37 Oeste 0.1 943.5 0.4 71
2019-04-07 07:00:00 8.3 13 Oeste 37 Oeste 0 943.5 0.8 67
2019-04-07 06:00:00 8.5 13 Oeste 38 Oeste 0 943.2 0.2 66
2019-04-07 05:00:00 9.4 10 Oeste 37 Oeste 0.2 943.1 0.2 70
2019-04-07 04:00:00 6.9 12 Oeste 35 Oeste 0.3 942.7 0 76
2019-04-07 03:00:00 8.5 10 Oeste 39 Oeste 0 943 1.2 67
2019-04-07 02:00:00 8.8 14 Oeste 43 Oeste 0 942.9 3.2 62
2019-04-07 01:00:00 8.8 11 Oeste 45 Oeste 0 942.7 2 68
2019-04-07 00:00:00 9.1 18 Oeste 46 Oeste 0.2 941.8 1.7 70
2019-04-06 23:00:00 6.9 9 Oeste 30 Noroeste 3.6 939.7 0.3 79
2019-04-06 22:00:00 7.3 8 Oeste 42 Oeste 0.5 940.7 1.2 75
2019-04-06 21:00:00 6.7 12 Oeste 37 Oeste 0.3 940.1 1 77
2019-04-06 20:00:00 6.5 6 Oeste 48 Oeste 1.8 939.4 0.6 80
2019-04-06 19:00:00 8.7 12 Oeste 32 Oeste 0 939.5 0.4 67
2019-04-06 18:00:00 9.7 8 Oeste 32 Oeste 0.6 939.1 -0.3 79
2019-04-06 17:00:00 6.1 18 Noroeste 44 Oeste 0.2 938.8 -1 72
2019-04-06 16:00:00 10.6 12 Oeste 36 Oeste 0 939.1 -0.6 52
2019-04-06 15:00:00 10.6 15 Oeste 36 Noroeste 0 939.4 -0.7 52
2019-04-06 14:00:00 10.3 9 Oeste 31 Oeste 0.1 939.8 -0.3 61
2019-04-06 13:00:00 8 10 Oeste 30 Oeste 1.2 939.7 -0.3 77
2019-04-06 12:00:00 11.3 15 Oeste 40 Oeste 0.1 940.1 0.3 49
2019-04-06 11:00:00 9.1 12 Oeste 38 Oeste 0 940.1 0.7 57
2019-04-06 10:00:00 9.4 12 Oeste 31 Oeste 0 940 1.2 56
2019-04-06 09:00:00 8.3 15 Oeste 36 Oeste 0 939.8 1.1 60
2019-04-06 08:00:00 8 12 Oeste 35 Oeste 0 939.4 0.7 66
2019-04-06 07:00:00 8.1 11 Oeste 38 Oeste 0.1 938.8 0.5 65
2019-04-06 06:00:00 7.7 11 Oeste 33 Noroeste 0 938.7 -0.1 69
2019-04-06 05:00:00 7.9 11 Oeste 33 Oeste 0 938.7 -0.2 65
2019-04-06 04:00:00 7.9 11 Oeste 33 Oeste 0 938.3 0.2 66
2019-04-06 03:00:00 7.6 11 Oeste 42 Oeste 0 938.8 1.2 66
2019-04-06 02:00:00 7.4 14 Oeste 47 Oeste 0 938.9 1.7 61
2019-04-06 01:00:00 7.5 15 Oeste 49 Oeste 0 938.1 1.4 62
2019-04-06 00:00:00 7.8 21 Oeste 54 Oeste 0 937.6 1.5 59
2019-04-05 23:00:00 8.3 22 Oeste 51 Oeste 0 937.2 1.7 56
2019-04-05 22:00:00 8.4 22 Oeste 49 Oeste 0 936.7 2 51
2019-04-05 21:00:00 8.6 12 Oeste 34 Oeste 0 936.1 1.4 46
2019-04-05 20:00:00 9.5 16 Oeste 46 Oeste 0 935.5 1.2 38
2019-04-05 19:00:00 10.2 20 Oeste 51 Noroeste 0 934.7 0.6 36
2019-04-05 18:00:00 9.4 16 Oeste 41 Oeste 0 934.7 0.6 49
2019-04-05 17:00:00 10.2 14 Noroeste 39 Noroeste 0.1 934.3 1.4 41
2019-04-05 16:00:00 10 10 Oeste 39 Oeste 0.5 934.1 0 58
2019-04-05 15:00:00 8.4 9 Oeste 34 Oeste 1 934.1 -0.1 72
2019-04-05 14:00:00 7.5 14 Oeste 45 Oeste 4 932.9 -1.3 75
2019-04-05 13:00:00 9.7 3 Noroeste 16 Oeste 0.6 934.1 0.3 76
2019-04-05 12:00:00 8.3 9 Oeste 32 Oeste 1 934.2 -0.6 68
2019-04-05 11:00:00 7.6 12 Oeste 29 Oeste 1.6 934.2 -0.8 74
2019-04-05 10:00:00 8.4 4 Este 17 Sudeste 0.9 933.8 -1.3 77
2019-04-05 09:00:00 8.1 8 Sudeste 16 Sudeste 0 934.8 -0.6 67
2019-04-05 08:00:00 8.4 6 Este 12 Nordeste 0 935 -0.8 64
2019-04-05 07:00:00 8.8 0 Calma 6 Sur 0 935.1 -1 61
2019-04-05 06:00:00 8.8 3 Oeste 9 Oeste 0 935.4 -1.2 58
2019-04-05 05:00:00 8.7 3 Oeste 20 Oeste 0 935.8 -0.8 54
2019-04-05 04:00:00 9.1 9 Noroeste 25 Oeste 0 936.1 0 47
2019-04-05 03:00:00 9.9 13 Oeste 36 Oeste 0 936.6 0.7 40
2019-04-05 02:00:00 9.7 12 Oeste 31 Noroeste 0 936.6 0.3 37
2019-04-05 01:00:00 10 12 Oeste 21 Oeste 0 936.1 0.3 38
2019-04-05 00:00:00 10.9 9 Oeste 24 Oeste 0 935.9 1.1 34
2019-04-04 23:00:00 11.9 6 Oeste 21 Oeste 0 936.3 1.9 35
2019-04-04 22:00:00 12.7 8 Oeste 28 Oeste 0 935.8 1.7 34
2019-04-04 21:00:00 14.4 6 Oeste 19 Oeste 0 934.8 0.6 32
2019-04-04 20:00:00 15 9 Oeste 27 Oeste 0 934.4 0.3 29
2019-04-04 19:00:00 16.2 12 Noroeste 27 Oeste 0 934.1 -0.9 25
2019-04-04 18:00:00 17.2 13 Noroeste 31 Noroeste 0 934.2 -1 22
2019-04-04 17:00:00 17 15 Noroeste 31 Oeste 0 934.1 -1.5 22
2019-04-04 16:00:00 17.2 13 Oeste 32 Oeste 0 935 -1.1 23
2019-04-04 15:00:00 16.7 14 Noroeste 31 Oeste 0 935.2 -1 24
2019-04-04 14:00:00 16 13 Noroeste 32 Noroeste 0 935.6 -0.7 24
2019-04-04 13:00:00 14.9 12 Noroeste 27 Oeste 0 936.1 0.1 25
2019-04-04 12:00:00 14.3 5 Norte 13 Noroeste 0 936.2 0.6 31
2019-04-04 11:00:00 11.2 5 Noroeste 12 Noroeste 0 936.3 0.9 37
2019-04-04 10:00:00 9.7 6 Noroeste 12 Noroeste 0 936 1.1 40
2019-04-04 09:00:00 9.5 5 Noroeste 13 Oeste 0 935.6 0.9 40
2019-04-04 08:00:00 8.6 5 Oeste 13 Oeste 0 935.4 0.7 40
2019-04-04 07:00:00 8.1 0 Calma 6 Oeste 0 934.9 -0.1 43
2019-04-04 06:00:00 8.9 3 Sudoeste 6 Sudoeste 0 934.7 -0.8 40
2019-04-04 05:00:00 9.7 2 Oeste 12 Oeste 0 934.7 -1 38
2019-04-04 04:00:00 10.4 3 Sudoeste 13 Oeste 0 935 -0.9 41
2019-04-04 03:00:00 10.2 5 Oeste 13 Oeste 0 935.5 -0.7 50
2019-04-04 02:00:00 12.8 7 Sudoeste 22 Oeste 0 935.7 -0.9 37
2019-04-04 01:00:00 13.6 11 Oeste 25 Oeste 0 935.9 -0.4 34
2019-04-04 00:00:00 14.7 13 Oeste 29 Oeste 0 936.2 0.4 31
2019-04-03 23:00:00 15 10 Oeste 27 Oeste 0 936.6 0.6 34
2019-04-03 22:00:00 15.4 9 Oeste 24 Oeste 0 936.3 0.4 32
2019-04-03 21:00:00 16 8 Oeste 26 Oeste 0 935.8 -0.3 30
2019-04-03 20:00:00 17.2 8 Oeste 30 Oeste 0 936 -0.6 29
2019-04-03 19:00:00 18.1 18 Noroeste 36 Noroeste 0 935.9 -1.6 27
2019-04-03 18:00:00 19 13 Noroeste 36 Noroeste 0 936.1 -2.2 27
2019-04-03 17:00:00 19.8 14 Noroeste 35 Oeste 0 936.6 -2.6 25
2019-04-03 16:00:00 19.5 14 Noroeste 35 Noroeste 0 937.5 -2.4 22
2019-04-03 15:00:00 19.4 14 Noroeste 27 Oeste 0 938.3 -2.3 23
2019-04-03 14:00:00 19 8 Norte 21 Oeste 0 939.2 -1.5 34
2019-04-03 13:00:00 16.9 7 Norte 15 Nordeste 0 939.9 -1.6 38
2019-04-03 12:00:00 14.7 5 Nordeste 17 Este 0 940.6 -1.5 47
2019-04-03 11:00:00 12.1 8 Nordeste 19 Este 0 940.7 -1.7 56
2019-04-03 10:00:00 10.5 8 Nordeste 18 Este 0 941.5 -1.5 66
2019-04-03 09:00:00 9.3 8 Este 20 Este 0 942.1 -1.1 72
2019-04-03 08:00:00 8.7 5 Este 15 Este 0 942.4 -1.4 81
2019-04-03 07:00:00 8.3 0 Calma 7 Sudeste 0 943 -1.4 82
2019-04-03 06:00:00 8.8 0 Calma 4 Sur 0 943.2 -1.5 80
2019-04-03 05:00:00 9.3 0 Calma 4 Sur 0 943.8 -1.6 76
2019-04-03 04:00:00 9.6 0 Calma 7 Oeste 0 944.4 -1.4 71
2019-04-03 03:00:00 11.1 2 Sur 7 Oeste 0 944.7 -0.7 63
2019-04-03 02:00:00 11.9 3 Sudoeste 8 Oeste 0 945.4 0 62
2019-04-03 01:00:00 12.2 3 Oeste 9 Oeste 0 945.8 0.4 64
2019-04-03 00:00:00 13 7 Oeste 13 Noroeste 0 945.4 0.2 58
2019-04-02 23:00:00 15.2 5 Oeste 12 Oeste 0 945.4 0.2 43
2019-04-02 22:00:00 15.1 4 Oeste 14 Oeste 0 945.4 0.3 44
2019-04-02 21:00:00 15.5 8 Oeste 13 Oeste 0 945.2 0.1 38
2019-04-02 20:00:00 16.8 5 Noroeste 19 Oeste 0 945.2 0 36
2019-04-02 19:00:00 17.4 12 Noroeste 22 Noroeste 0 945.1 -0.8 33
2019-04-02 18:00:00 18.2 11 Noroeste 25 Noroeste 0 945.1 -1.4 30
2019-04-02 17:00:00 18.7 4 Noroeste 19 Oeste 0 945.2 -2.1 29
2019-04-02 16:00:00 17.7 10 Noroeste 20 Noroeste 0 945.9 -1.9 31
2019-04-02 15:00:00 17.4 9 Noroeste 17 Noroeste 0 946.5 -2.1 33
2019-04-02 14:00:00 16.9 5 Noroeste 13 Noroeste 0 947.3 -0.6 35
2019-04-02 13:00:00 15.1 4 Nordeste 10 Nordeste 0 947.8 -0.1 42
2019-04-02 12:00:00 13.3 5 Nordeste 13 Este 0 948.6 0.6 56
2019-04-02 11:00:00 11 8 Este 18 Este 0 947.9 0.5 65
2019-04-02 10:00:00 9.6 7 Este 15 Este 0 947.9 1 70
2019-04-02 09:00:00 8.7 0 Calma 11 Sudeste 0 948 0.9 82
2019-04-02 08:00:00 8.1 7 Este 15 Este 0 947.4 0.2 83
2019-04-02 07:00:00 9.1 9 Este 19 Este 0 946.9 -0.8 84
2019-04-02 06:00:00 8.5 0 Calma 9 Este 0 947.1 -0.9 84
2019-04-02 05:00:00 9.1 0 Calma 5 Sudeste 0 947.2 -0.8 84
2019-04-02 04:00:00 9.4 0 Calma 5 Sudeste 0 947.7 -0.5 81
2019-04-02 03:00:00 10.2 0 Calma 6 Oeste 0 948 0.1 79
2019-04-02 02:00:00 10.4 3 Sudoeste 6 Sudoeste 0 948 0.1 76
2019-04-02 01:00:00 10.7 4 Sudoeste 9 Sudoeste 0 948.2 1.2 79
2019-04-02 00:00:00 11.6 3 Oeste 18 Sudoeste 0.4 947.9 1.9 78
2019-04-01 23:00:00 12.9 8 Oeste 23 Sudoeste 0 947.9 2.4 59
2019-04-01 22:00:00 12.3 8 Oeste 15 Oeste 0 947 1.9 67
2019-04-01 21:00:00 12.3 4 Noroeste 15 Noroeste 0 946 0.9 69
2019-04-01 20:00:00 14.3 7 Noroeste 20 Noroeste 0 945.5 0.5 53
2019-04-01 19:00:00 15.4 4 Oeste 12 Noroeste 0 945.1 0.1 45
2019-04-01 18:00:00 14.9 5 Este 12 Este 0 945.1 0.2 46
2019-04-01 17:00:00 15.2 3 Nordeste 17 Sudoeste 0 945 -0.4 47
2019-04-01 16:00:00 14.8 4 Oeste 21 Oeste 0.1 945 -0.7 45
2019-04-01 15:00:00 13 5 Sudoeste 25 Sudoeste 0.9 944.9 -1.1 69
2019-04-01 14:00:00 15.8 4 Noroeste 14 Este 0 945.4 -0.1 44
2019-04-01 13:00:00 13.3 6 Nordeste 10 Nordeste 0 945.7 0.8 61
2019-04-01 12:00:00 11.7 3 Nordeste 11 Este 0 946 1.7 69
2019-04-01 11:00:00 11.1 5 Este 14 Este 0 945.5 1.8 81
2019-04-01 10:00:00 10.4 6 Este 13 Este 0 944.9 1.2 83
2019-04-01 09:00:00 10.1 2 Este 10 Este 0 944.3 1 84
2019-04-01 08:00:00 9.9 4 Sudeste 13 Sudeste 0 943.7 0.2 84
2019-04-01 07:00:00 10.3 0 Calma 11 Este 0 943.7 0.2 84
2019-04-01 06:00:00 10.5 5 Este 13 Sudeste 0 943.3 -0.3 84
2019-04-01 05:00:00 10.8 6 Sudeste 14 Este 0 943.5 0.2 84
2019-04-01 04:00:00 11.2 4 Este 12 Este 0 943.5 0.3 83
2019-04-01 03:00:00 11.1 4 Este 10 Este 0 943.6 0.8 84
2019-04-01 02:00:00 11.7 0 Calma 9 Este 0 943.3 1.4 84
2019-04-01 01:00:00 11.1 3 Noroeste 18 Noroeste 0.1 943.2 0.6 84
2019-04-01 00:00:00 10.6 6 Oeste 22 Noroeste 5.7 942.8 0.9 84
2019-03-31 23:00:00 11.1 12 Oeste 25 Oeste 1.9 941.9 0.7 81
2019-03-31 22:00:00 12.7 4 Sudeste 15 Sudeste 0 942.6 1.5 72
2019-03-31 21:00:00 13.4 6 Sudeste 16 Este 0 941.9 1 66
2019-03-31 20:00:00 14.1 4 Sudeste 11 Sudeste 0 941.2 0.1 65
2019-03-31 19:00:00 14.3 5 Este 11 Este 0 941.1 -0.4 57
2019-03-31 18:00:00 15.5 3 Norte 14 Oeste 0 940.9 -1.2 50
2019-03-31 17:00:00 16.1 4 Noroeste 13 Oeste 0 941.1 -0.6 52
2019-03-31 16:00:00 13.6 2 Noroeste 9 Noroeste 0 941.5 -0.4 64
2019-03-31 15:00:00 13.6 4 Este 11 Nordeste 0.1 942.1 -0.6 68
2019-03-31 14:00:00 13.3 5 Nordeste 9 Nordeste 0.6 941.7 -1 84
2019-03-31 13:00:00 11.5 3 Nordeste 6 Nordeste 1.9 941.9 0.2 84
2019-03-31 12:00:00 10.3 3 Este 9 Este 0.5 942.7 2.5 84
2019-03-31 11:00:00 10.3 2 Nordeste 6 Nordeste 0.1 942.7 0.9 84
2019-03-31 10:00:00 9.4 3 Este 9 Este 1.7 941.7 0.5 84
2019-03-31 09:00:00 8.9 6 Este 10 Este 0.6 940.2 -2 84
2019-03-31 08:00:00 9.7 4 Este 9 Este 0.6 941.8 0.5 84
2019-03-31 07:00:00 9.6 5 Este 14 Sudeste 0.5 941.2 -2.9 85
2019-03-31 06:00:00 9.8 6 Sudeste 15 Este 2.4 942.2 -3 84
2019-03-31 05:00:00 9.7 8 Este 14 Sudeste 2 941.3 -4.5 84
2019-03-31 03:00:00 11.9 6 Sudeste 16 Este 0.2 945.2 -1.2 76
2019-03-31 01:00:00 12.7 0 Calma 11 Sudoeste 0 945.8 -0.3 63
2019-03-31 00:00:00 13.1 4 Oeste 12 Noroeste 0 945.9 0.1 61
2019-03-30 23:00:00 12.9 0 Calma 9 Noroeste 0 946.4 1.2 60
2019-03-30 22:00:00 13.1 4 Oeste 10 Noroeste 0 946.1 0.8 59
2019-03-30 21:00:00 13.8 4 Noroeste 10 Oeste 0 945.8 0.7 56
2019-03-30 20:00:00 14.8 0 Calma 17 Noroeste 0 945.2 0.5 54
2019-03-30 19:00:00 14.8 5 Noroeste 18 Norte 0 945.3 0.5 54
2019-03-30 18:00:00 16.6 7 Norte 17 Nordeste 0 945.1 -0.5 43
2019-03-30 17:00:00 19.7 8 Este 21 Nordeste 0 944.7 -1.8 35
2019-03-30 16:00:00 19.9 7 Nordeste 12 Nordeste 0 944.8 -2.9 33
2019-03-30 15:00:00 19.5 5 Nordeste 14 Norte 0 945.6 -2.8 33
2019-03-30 14:00:00 19.1 3 Norte 15 Nordeste 0 946.5 -2.7 35
2019-03-30 13:00:00 17.1 5 Nordeste 13 Nordeste 0 947.7 -1.5 37
2019-03-30 12:00:00 15.2 11 Nordeste 18 Nordeste 0 948.4 -1.1 40
2019-03-30 11:00:00 14.4 9 Este 29 Este 0 949.2 -0.5 44
2019-03-30 10:00:00 11.5 9 Sudeste 25 Este 0 949.2 -0.5 52
2019-03-30 09:00:00 8.8 9 Sudeste 25 Este 0 949.5 -0.5 58
2019-03-30 08:00:00 8.5 10 Este 22 Sudeste 0 949.7 -0.2 59
2019-03-30 07:00:00 8 11 Sudeste 24 Sudeste 0 949.7 -0.9 64
2019-03-30 06:00:00 9.5 11 Sudeste 24 Este 0 950 -0.7 67
2019-03-30 05:00:00 8.5 7 Sudeste 19 Sudeste 0 949.9 -1.2 72
2019-03-30 04:00:00 10.2 9 Sudeste 23 Sudeste 0 950.6 -1.1 65
2019-03-30 03:00:00 9.7 5 Este 12 Este 0 950.7 -1.3 67
2019-03-30 02:00:00 9.9 3 Sudeste 12 Sudeste 0 951.1 -0.7 69
2019-03-30 01:00:00 10.4 3 Sur 12 Sudeste 0 951.7 0 67
2019-03-30 00:00:00 10.8 5 Sur 11 Sudeste 0 952 0.8 62
2019-03-29 23:00:00 11.7 6 Sudeste 12 Este 0 951.8 1.5 57
2019-03-29 22:00:00 12.6 6 Sudeste 13 Sudeste 0 951.7 1.6 53
2019-03-29 21:00:00 14.3 4 Sudoeste 10 Sudoeste 0 951.2 1.2 46
2019-03-29 20:00:00 14.1 2 Oeste 8 Norte 0 950.3 0.3 47
2019-03-29 19:00:00 16.1 3 Noroeste 11 Nordeste 0 950.1 -0.1 37
2019-03-29 18:00:00 17.7 4 Norte 12 Noroeste 0 950 -0.9 32
2019-03-29 17:00:00 18.9 5 Noroeste 24 Oeste 0 950 -1.2 30
2019-03-29 16:00:00 19.4 3 Noroeste 19 Oeste 0 950.2 -1.6 27
2019-03-29 15:00:00 18.2 6 Nordeste 18 Este 0 950.9 -1.6 25
2019-03-29 14:00:00 17.9 8 Este 20 Sudoeste 0 951.2 -1.9 25
2019-03-29 13:00:00 17.7 6 Norte 18 Nordeste 0 951.8 -1.8 27
2019-03-29 12:00:00 15 9 Nordeste 23 Este 0 952.5 -1 29
2019-03-29 11:00:00 12.9 8 Este 26 Sudeste 0 953.1 -0.3 32
2019-03-29 10:00:00 12.3 6 Sudeste 22 Sudeste 0 953.6 0.7 35
2019-03-29 09:00:00 8.6 9 Sudeste 26 Sudeste 0 953.5 0.7 38
2019-03-29 08:00:00 9.4 13 Sudeste 35 Sudeste 0 953.4 0.5 34
2019-03-29 07:00:00 8.7 13 Sudeste 29 Sudeste 0 952.9 0 34
2019-03-29 06:00:00 8.9 13 Sudeste 29 Sudeste 0 952.8 -0.2 34
2019-03-29 05:00:00 8.5 12 Sudeste 32 Sudeste 0 952.9 -0.6 33
2019-03-29 04:00:00 7.4 7 Este 26 Sudeste 0 952.9 -0.7 35
2019-03-29 03:00:00 7.8 12 Sudeste 26 Sudeste 0 953 -1.1 38
2019-03-29 02:00:00 8.5 12 Sudeste 29 Sudeste 0 953.5 -0.8 35
2019-03-29 01:00:00 9.9 10 Sudeste 22 Sudeste 0 953.6 -0.5 42
2019-03-29 00:00:00 9.9 8 Sudeste 23 Sudeste 0 954.1 0.8 47
2019-03-28 23:00:00 10.6 6 Este 15 Sudeste 0 954.3 2 50
2019-03-28 22:00:00 10.9 6 Sudeste 17 Este 0 954.1 2.5 51
2019-03-28 21:00:00 11.7 2 Sudoeste 6 Oeste 0 953.3 2.1 45
2019-03-28 20:00:00 12.8 0 Calma 11 Norte 0 952.3 0.8 37
2019-03-28 19:00:00 16.2 3 Este 19 Sudeste 0 951.6 -0.4 21
2019-03-28 18:00:00 17.5 5 Este 18 Sudeste 0 951.2 -1.4 17
2019-03-28 17:00:00 18.5 6 Este 16 Este 0 951.5 -1.9 16
2019-03-28 16:00:00 18.2 7 Este 26 Sudeste 0 952 -1.9 16
2019-03-28 15:00:00 17.3 7 Nordeste 24 Este 0 952.6 -1.9 16
2019-03-28 14:00:00 17.5 12 Sudeste 35 Este 0 953.4 -1.8 16
2019-03-28 13:00:00 16.4 17 Este 40 Este 0 953.9 -1.7 17
2019-03-28 12:00:00 16 11 Este 31 Este 0 954.5 -1.1 22
2019-03-28 11:00:00 13.7 13 Este 29 Este 0 955.2 -0.1 31
2019-03-28 10:00:00 11.6 9 Este 20 Este 0 955.6 0.8 40
2019-03-28 09:00:00 8.8 10 Sudeste 21 Sudeste 0 955.6 1.5 49
2019-03-28 08:00:00 6.3 9 Este 21 Este 0 955.3 1.4 65
2019-03-28 07:00:00 5.5 9 Sudeste 23 Sudeste 0 954.8 0.8 77
2019-03-28 06:00:00 5.7 6 Este 20 Sudeste 0 954.1 0.1 81
2019-03-28 05:00:00 6.8 10 Sudeste 19 Sudeste 0 953.9 -0.6 78
2019-03-28 04:00:00 7.6 4 Sudeste 15 Sudeste 0 954 -0.5 78
2019-03-28 03:00:00 8.2 5 Sudeste 18 Sudeste 0 954 -0.5 78
2019-03-28 02:00:00 9.1 8 Sudeste 18 Sudeste 0 954.5 0.4 74
2019-03-28 01:00:00 9.4 5 Sudeste 14 Sudeste 0 954.5 1 72
2019-03-28 00:00:00 9.8 5 Sudeste 12 Sur 0 954.5 2 66
2019-03-27 23:00:00 10.8 5 Oeste 11 Oeste 0 954.1 2.6 61
2019-03-27 22:00:00 11.1 4 Oeste 10 Oeste 0 953.5 3.2 59
2019-03-27 21:00:00 11.4 5 Sudoeste 8 Sudoeste 0 952.5 2.9 57
2019-03-27 20:00:00 12.4 2 Norte 18 Oeste 0 951.5 2.1 49
2019-03-27 19:00:00 15.1 5 Oeste 22 Oeste 0 950.3 0.7 35
2019-03-27 18:00:00 17 11 Noroeste 24 Oeste 0 949.6 -0.4 31
2019-03-27 17:00:00 18.8 8 Oeste 19 Noroeste 0 949.4 -1.1 26
2019-03-27 16:00:00 19 7 Oeste 20 Oeste 0 949.6 -1.4 24
2019-03-27 15:00:00 18.5 3 Este 17 Nordeste 0 950 -1 21
2019-03-27 14:00:00 17.4 6 Nordeste 13 Sudeste 0 950.5 -0.6 23
2019-03-27 13:00:00 15.5 6 Nordeste 18 Este 0 951 0.1 25
2019-03-27 12:00:00 14.5 9 Nordeste 21 Este 0 951 0.6 27
2019-03-27 11:00:00 15.1 6 Sudeste 21 Sudeste 0 951.1 1.1 27
2019-03-27 10:00:00 12.9 11 Sudeste 25 Sudeste 0 950.9 1.6 27
2019-03-27 09:00:00 12.1 10 Sudeste 27 Sudeste 0 950.4 1.4 28
2019-03-27 08:00:00 10.9 10 Sur 25 Sur 0 950 1.1 28
2019-03-27 07:00:00 10.3 13 Sur 30 Sur 0 949.3 1 29
2019-03-27 06:00:00 10.5 14 Sur 26 Sur 0 949 0.9 31
2019-03-27 05:00:00 10.8 11 Sur 27 Sudeste 0 948.9 0.6 33
2019-03-27 04:00:00 11.6 12 Sudeste 30 Sudeste 0 948.3 0.4 34
2019-03-27 03:00:00 12.4 10 Sudeste 23 Sudeste 0 948.1 0.4 43
2019-03-27 02:00:00 12.4 8 Sudeste 28 Sudeste 0 948.3 1 40
2019-03-27 01:00:00 13.5 13 Sudeste 32 Sur 0 947.9 1 38
2019-03-27 00:00:00 14 16 Sudeste 35 Sudeste 0 947.7 1.9 40
2019-03-26 23:00:00 14.4 14 Sur 32 Sur 0 947.3 2.5 38
2019-03-26 22:00:00 15.3 15 Sudeste 36 Sudeste 0.1 946.9 2.8 36
2019-03-26 21:00:00 17.2 16 Sudeste 31 Sudeste 0 945.8 2.4 31
2019-03-26 20:00:00 17.9 14 Sudeste 28 Sudeste 0 944.8 1.9 28
2019-03-26 19:00:00 19.7 10 Sudeste 27 Este 0 944.1 1.1 25
2019-03-26 18:00:00 21.4 12 Este 24 Este 0 943.4 0.1 22
2019-03-26 17:00:00 22 10 Este 21 Este 0 942.9 -0.7 21
2019-03-26 16:00:00 23 8 Este 24 Este 0 943 -1.5 21
2019-03-26 15:00:00 23 11 Este 25 Nordeste 0 943.3 -1.6 21
2019-03-26 14:00:00 22.3 11 Este 24 Este 0 943.6 -1.3 21
2019-03-26 13:00:00 20.6 12 Este 26 Este 0 944.5 -0.2 22
2019-03-26 12:00:00 19.3 14 Sudeste 34 Sudeste 0 944.9 0.3 24
2019-03-26 11:00:00 17.1 16 Sudeste 33 Sudeste 0 944.9 0.2 27
2019-03-26 10:00:00 16.5 15 Sudeste 32 Sudeste 0 944.7 0.2 30
2019-03-26 09:00:00 11.7 12 Sudeste 32 Sudeste 0 944.6 0.2 49
2019-03-26 08:00:00 11.1 14 Sudeste 30 Sudeste 0 944.7 0.2 52
2019-03-26 07:00:00 9.8 12 Sudeste 28 Sudeste 0 944.5 -0.4 58
2019-03-26 06:00:00 10.4 12 Este 27 Este 0 944.4 -0.8 58
2019-03-26 05:00:00 11.5 12 Sudeste 24 Sudeste 0 944.5 -1.2 54
2019-03-26 04:00:00 11.7 11 Sudeste 22 Este 0 944.9 -1.1 56
2019-03-26 03:00:00 10.9 9 Este 27 Este 0 945.2 -0.9 62
2019-03-26 02:00:00 12.8 12 Sudeste 25 Sudeste 0 945.7 -0.5 54
2019-03-26 01:00:00 14.7 11 Sudeste 24 Sudeste 0 946 -0.1 50
2019-03-26 00:00:00 13.8 14 Sudeste 26 Sudeste 0 946.1 0.3 53
2019-03-25 23:00:00 14 9 Este 20 Sudeste 0 946.2 1.1 54
2019-03-25 22:00:00 14.6 6 Sudeste 12 Sudeste 0 946.1 1.3 50
2019-03-25 21:00:00 15.2 2 Sudoeste 8 Sudoeste 0 945.8 1.4 44
2019-03-25 20:00:00 16.3 4 Oeste 8 Noroeste 0 945.1 0.1 42
2019-03-25 19:00:00 18.8 2 Sudoeste 13 Noroeste 0 944.8 -0.8 32
2019-03-25 18:00:00 20.6 7 Noroeste 14 Noroeste 0 944.4 -2.1 28
2019-03-25 17:00:00 22.4 5 Norte 14 Nordeste 0 945 -2.6 24
2019-03-25 16:00:00 22.1 2 Sudeste 18 Norte 0 945.6 -3.2 25
2019-03-25 15:00:00 21.4 4 Este 17 Nordeste 0 946.5 -2.9 27
2019-03-25 14:00:00 21.4 3 Este 17 Norte 0 947.6 -2.4 31
2019-03-25 13:00:00 18.4 6 Nordeste 19 Este 0 948.8 -1.4 36
2019-03-25 12:00:00 16.2 9 Nordeste 21 Sudeste 0 949.4 -0.6 40
2019-03-25 11:00:00 15 9 Este 21 Este 0 950 0.2 47
2019-03-25 10:00:00 12.8 7 Este 21 Este 0 950.2 0.6 54
2019-03-25 09:00:00 12.5 7 Sudeste 19 Sudeste 0 950 0.5 51
2019-03-25 08:00:00 10 5 Este 20 Sudeste 0 949.8 0.2 61
2019-03-25 07:00:00 9.4 6 Sudeste 20 Este 0 949.6 -0.4 60
2019-03-25 06:00:00 9.8 9 Este 19 Este 0 949.5 -0.9 60
2019-03-25 05:00:00 10.4 5 Sudeste 17 Sudeste 0 949.6 -0.9 56
2019-03-25 04:00:00 11.6 10 Sur 23 Sur 0 950 -0.7 50
2019-03-25 03:00:00 10.4 6 Este 17 Este 0 950.4 -0.7 61
2019-03-25 02:00:00 10.7 2 Nordeste 12 Este 0 950.5 -0.7 62
2019-03-25 01:00:00 11.6 0 Calma 7 Este 0 950.7 -0.4 63
2019-03-25 00:00:00 12 4 Sur 7 Sur 0 951.1 0.4 56
2019-03-24 23:00:00 12.5 2 Sudeste 7 Sudeste 0 951.2 0.7 56
2019-03-24 22:00:00 13.4 3 Este 8 Este 0 951.1 0.8 49
2019-03-24 21:00:00 13.5 4 Sudeste 9 Sudeste 0 950.7 0.5 48
2019-03-24 20:00:00 14.6 5 Este 15 Este 0 950.5 0.4 46
2019-03-24 19:00:00 15 5 Nordeste 12 Norte 0 950.3 0.1 46
2019-03-24 18:00:00 15.3 4 Nordeste 19 Norte 0 950.2 -0.3 44
2019-03-24 17:00:00 16.3 8 Sudeste 28 Sudeste 0 950.1 -0.9 37
2019-03-24 16:00:00 16.4 10 Este 46 Norte 0 950.2 -1.4 38
2019-03-24 15:00:00 16.9 10 Sudeste 37 Este 0 950.5 -1.6 38
2019-03-24 14:00:00 15.5 8 Nordeste 31 Este 0 951 -0.6 48
2019-03-24 13:00:00 13.8 12 Sudeste 32 Sudeste 0.1 951.6 0.1 50
2019-03-24 12:00:00 11 12 Sudeste 32 Este 0.1 952.1 1.2 70
2019-03-24 11:00:00 12.1 13 Este 32 Sudeste 0 951.6 0.9 52
2019-03-24 10:00:00 12.6 13 Sudeste 35 Sudeste 0 951.5 0.9 46
2019-03-24 09:00:00 11.5 14 Sudeste 34 Sudeste 0 950.9 0.6 50
2019-03-24 08:00:00 11.1 15 Sudeste 41 Sudeste 0 950.7 0.4 51
2019-03-24 07:00:00 11.3 11 Sudeste 35 Sudeste 0 950.6 0.2 52
2019-03-24 06:00:00 11.2 15 Sudeste 30 Sudeste 0 950.3 -0.2 52
2019-03-24 05:00:00 11.1 13 Sudeste 31 Sudeste 0 950.3 -0.6 53
2019-03-24 04:00:00 10.7 12 Sudeste 31 Este 0 950.4 -0.6 55
2019-03-24 03:00:00 10.8 11 Sudeste 28 Sudeste 0 950.5 -0.9 54
2019-03-24 02:00:00 8.6 8 Este 17 Sudeste 0 950.9 -0.6 70
2019-03-24 01:00:00 9.2 6 Sudeste 17 Sudeste 0 951 -0.6 68
2019-03-24 00:00:00 9.4 6 Este 28 Sudeste 0 951.4 0 63
2019-03-23 23:00:00 11.5 11 Sudeste 29 Sudeste 0 951.5 0.3 54
2019-03-23 22:00:00 11.5 11 Sudeste 28 Sudeste 0 951.6 0.6 54
2019-03-23 21:00:00 11.4 5 Sudeste 21 Sudeste 0 951.4 2.2 56
2019-03-23 20:00:00 12.1 6 Sudeste 23 Sur 0 951.2 1.7 53
2019-03-23 19:00:00 11.9 8 Sur 19 Sudeste 0.1 951 1.6 62
2019-03-23 18:00:00 10.6 7 Sur 29 Nordeste 2.5 949.2 -1 78
2019-03-23 17:00:00 17.2 8 Este 30 Sudeste 0 949.5 -1.5 29
2019-03-23 16:00:00 18.4 7 Este 30 Este 0 949.4 -2.6 28
2019-03-23 15:00:00 18.4 8 Este 31 Este 0 950.2 -1.9 28
2019-03-23 14:00:00 18.8 9 Sudeste 34 Este 0 951 -2.2 28
2019-03-23 13:00:00 16.6 9 Este 23 Nordeste 0 952 -1.5 34
2019-03-23 12:00:00 15.6 10 Nordeste 19 Este 0 952.1 -1.1 36
2019-03-23 11:00:00 13.1 8 Este 21 Sudeste 0 953.2 -0.1 45
2019-03-23 10:00:00 9.8 11 Este 22 Este 0 953.5 0.5 60
2019-03-23 09:00:00 7.7 10 Este 19 Este 0 953.2 0.3 67
2019-03-23 08:00:00 6.5 4 Este 22 Este 0 953.3 0.3 72
2019-03-23 07:00:00 6.5 6 Este 16 Este 0 953 -0.2 74
2019-03-23 06:00:00 5.5 4 Nordeste 17 Sudeste 0 952.9 -1 74
2019-03-23 05:00:00 7 6 Este 25 Sudeste 0 953 -1 69
2019-03-23 04:00:00 8.1 10 Sudeste 23 Este 0 953.2 -0.6 67
2019-03-23 03:00:00 9.4 11 Sudeste 22 Sudeste 0 953.9 -0.1 62
2019-03-23 02:00:00 9.5 9 Sudeste 21 Sudeste 0 954 -0.5 62
2019-03-23 01:00:00 9.5 9 Sudeste 18 Sudeste 0 953.8 -0.6 61
2019-03-23 00:00:00 9.7 5 Este 16 Sur 0 954 0.3 62
2019-03-22 23:00:00 9.8 3 Sur 12 Este 0 954.5 1.7 62
2019-03-22 22:00:00 10.7 6 Sur 12 Sudeste 0 954.4 2.1 57
2019-03-22 21:00:00 11.9 3 Sudeste 10 Este 0 953.7 2 50
2019-03-22 20:00:00 12.6 0 Calma 11 Norte 0 952.8 1.1 45
2019-03-22 19:00:00 15.3 4 Noroeste 18 Norte 0 952.3 -0.1 33
2019-03-22 18:00:00 17.6 7 Noroeste 19 Oeste 0 951.7 -1.1 25
2019-03-22 17:00:00 18.8 4 Sudeste 16 Sudeste 0 951.7 -1.6 21
2019-03-22 16:00:00 19 4 Sur 15 Nordeste 0 952.4 -1.7 23
2019-03-22 15:00:00 16.5 8 Nordeste 16 Nordeste 0 952.8 -2 25
2019-03-22 14:00:00 16.4 3 Este 16 Sudeste 0 953.3 -1.9 27
2019-03-22 13:00:00 14.5 4 Este 18 Sudeste 0 954.1 -1.4 30
2019-03-22 12:00:00 13.5 8 Sudeste 19 Este 0 954.8 -0.5 34
2019-03-22 11:00:00 11.2 7 Nordeste 22 Sudeste 0 955.2 0.2 38
2019-03-22 10:00:00 9.5 8 Sudeste 19 Este 0 955.5 1 51
2019-03-22 09:00:00 7.1 8 Este 19 Sudeste 0 955.3 0.9 59
2019-03-22 08:00:00 7.6 6 Sudeste 22 Sur 0 955 0.8 48
2019-03-22 07:00:00 6.1 6 Sudeste 18 Este 0 954.5 0.2 68
2019-03-22 06:00:00 4.7 10 Este 20 Este 0 954.4 -0.1 78
2019-03-22 05:00:00 6.1 9 Este 19 Este 0 954.2 -0.5 74
2019-03-22 04:00:00 6.6 6 Este 15 Sudeste 0 954.3 -0.7 76
2019-03-22 03:00:00 6.5 4 Sudeste 15 Este 0 954.5 -0.6 76
2019-03-22 02:00:00 7.6 6 Sudeste 17 Sudeste 0 954.7 -0.3 71
2019-03-22 01:00:00 7.9 7 Sudeste 13 Sudeste 0 955 0.2 69
2019-03-22 00:00:00 8.9 6 Sudeste 12 Sur 0 955.1 1.2 62
2019-03-21 23:00:00 8.9 4 Sur 6 Sudoeste 0 955 1.5 56
2019-03-21 22:00:00 9.9 3 Sur 13 Sudeste 0 954.8 2.3 51
2019-03-21 21:00:00 10.7 5 Sudeste 9 Este 0 953.9 2 49
2019-03-21 20:00:00 10.9 0 Calma 13 Norte 0 953.5 1.4 47
2019-03-21 19:00:00 13.8 2 Noroeste 14 Nordeste 0 952.5 0 31
2019-03-21 18:00:00 15.4 2 Oeste 24 Noroeste 0 951.9 -1 26
2019-03-21 17:00:00 15.7 5 Nordeste 18 Nordeste 0 952.1 -1.5 19
2019-03-21 16:00:00 16.7 6 Sudeste 20 Norte 0 952.5 -1.8 19
2019-03-21 15:00:00 15.4 9 Nordeste 23 Este 0 952.9 -2.1 21
2019-03-21 14:00:00 15.7 5 Sur 21 Sudeste 0 953.6 -1.7 21
2019-03-21 13:00:00 14.1 9 Sudeste 24 Este 0 954.3 -1.1 24
2019-03-21 12:00:00 13.4 8 Sudeste 22 Este 0 955 -0.2 26
2019-03-21 11:00:00 12.5 8 Sudeste 18 Sudeste 0 955.3 0.5 28
2019-03-21 10:00:00 10.4 6 Este 14 Este 0 955.4 1.2 37
2019-03-21 09:00:00 7.6 8 Este 23 Sudeste 0 955.2 -- 47
2019-03-21 08:00:00 7.5 6 Sudeste 21 Sudeste 0 954.8 -- 42
2019-03-21 07:00:00 6.7 8 Sudeste 24 Sudeste 0 954.2 -- 45
2019-03-21 06:00:00 -- 8 Sudeste -- -- -- -- -- --
2019-03-21 05:00:00 -- -- -- -- -- -- -- -- --
2019-03-21 04:00:00 -- -- -- -- -- -- -- -- --
2019-03-21 03:00:00 -- -- -- -- -- -- -- -- --
2019-03-21 02:00:00 -- -- -- -- -- -- -- -- --
2019-03-21 01:00:00 -- -- -- -- -- -- -- -- --
2019-03-21 00:00:00 -- -- -- -- -- -- -- -- --
2019-03-20 23:00:00 -- -- -- -- -- -- -- -- --
2019-03-20 22:00:00 -- -- -- -- -- -- -- -- --
2019-03-20 21:00:00 -- -- -- -- -- -- -- -- --
2019-03-20 20:00:00 -- -- -- -- -- -- -- -- --
2019-03-20 19:00:00 -- -- -- -- -- -- -- -- --
2019-03-20 18:00:00 -- -- -- -- -- -- -- -- --
2019-03-20 17:00:00 -- -- -- -- -- -- -- -- --
2019-03-20 16:00:00 -- -- -- -- -- -- -- -- --
2019-03-20 15:00:00 -- -- -- -- -- -- -- -- --
2019-03-20 14:00:00 -- -- -- -- -- -- -- -- --
2019-03-20 13:00:00 -- -- -- -- -- -- -- -- --
2019-03-20 12:00:00 -- -- -- -- -- -- -- -- --
2019-03-20 11:00:00 -- -- -- -- -- -- -- -- --
2019-03-20 10:00:00 -- -- -- -- -- -- -- -- --
2019-03-20 09:00:00 -- -- -- -- -- -- -- -- --
2019-03-20 08:00:00 -- -- -- -- -- -- -- -- --
2019-03-20 07:00:00 -- -- -- -- -- -- -- -- --
2019-03-20 06:00:00 -- -- -- -- -- -- -- -- --
2019-03-20 05:00:00 -- -- -- -- -- -- -- -- --
2019-03-20 04:00:00 -- -- -- -- -- -- -- -- --
2019-03-20 03:00:00 -- -- -- -- -- -- -- -- --
2019-03-20 02:00:00 -- -- -- -- -- -- -- -- --
2019-03-20 01:00:00 -- -- -- -- -- -- -- -- --
2019-03-20 00:00:00 -- -- -- -- -- -- -- -- --
2019-03-19 23:00:00 -- -- -- -- -- -- -- -- --
2019-03-19 22:00:00 -- -- -- -- -- -- -- -- --
2019-03-19 21:00:00 -- -- -- -- -- -- -- -- --
2019-03-19 20:00:00 -- -- -- -- -- -- -- -- --
2019-03-19 19:00:00 -- -- -- -- -- -- -- -- --
2019-03-19 18:00:00 -- -- -- -- -- -- -- -- --
2019-03-19 17:00:00 -- -- -- -- -- -- -- -- --
2019-03-19 16:00:00 -- -- -- -- -- -- -- -- --
2019-03-19 15:00:00 -- -- -- -- -- -- -- -- --
2019-03-19 14:00:00 -- -- -- -- -- -- -- -- --
2019-03-19 13:00:00 -- -- -- -- -- -- -- -- --
2019-03-19 12:00:00 -- -- -- -- -- -- -- -- --
2019-03-19 11:00:00 -- -- -- -- -- -- -- -- --
2019-03-19 10:00:00 -- -- -- -- -- -- -- -- --
2019-03-19 09:00:00 -- -- -- -- -- -- -- -- --
2019-03-19 08:00:00 -- -- -- -- -- -- -- -- --
2019-03-19 07:00:00 -- -- -- -- -- -- -- -- --
2019-03-19 06:00:00 -- -- -- -- -- -- -- -- --
2019-03-19 05:00:00 -- -- -- -- -- -- -- -- --
2019-03-19 04:00:00 -- -- -- -- -- -- -- -- --
2019-03-19 03:00:00 -- -- -- -- -- -- -- -- --
2019-03-19 02:00:00 -- -- -- -- -- -- -- -- --
2019-03-19 01:00:00 -- -- -- -- -- -- -- -- --
2019-03-19 00:00:00 -- -- -- -- -- -- -- -- --